This is the latest recevied weather packets stored in our database for station/object KC5CAM-13. If no packets are shown the sender has not sent any weather packets the latest 10 day(s).
| Time | Temp. | Humidity | Pressure | Rain* | Wind** | Luminosity | Snow |
|---|---|---|---|---|---|---|---|
| 1777765542 | 23.89° C | 43% | 1019.3 hPa | 0 mm | - | 44 W/m² | - |
| 1777765240 | 24.44° C | 41% | 1019.4 hPa | 0 mm | - | 115 W/m² | - |
| 1777764940 | 23.89° C | 44% | 1019.3 hPa | 0 mm | - | 82 W/m² | - |
| 1777764638 | 24.44° C | 42% | 1019.3 hPa | 0 mm | - | 163 W/m² | - |
| 1777764333 | 24.44° C | 41% | 1019.5 hPa | 0 mm | - | 169 W/m² | - |
| 1777764031 | 25° C | 43% | 1019.3 hPa | 0 mm | - | 182 W/m² | - |
| 1777763728 | 25° C | 42% | 1019.3 hPa | 0 mm | - | 198 W/m² | - |
| 1777763426 | 25.56° C | 41% | 1019.1 hPa | 0 mm | - | 217 W/m² | - |
| 1777763124 | 26.11° C | 39% | 1019.4 hPa | 0 mm | - | 228 W/m² | - |
| 1777762822 | 26.11° C | 41% | 1019.5 hPa | 0 mm | - | 251 W/m² | - |
| 1777762517 | 25.56° C | 42% | 1019.4 hPa | 0 mm | - | 275 W/m² | - |
| 1777762214 | 25.56° C | 40% | 1019.6 hPa | 0 mm | - | 299 W/m² | - |
| 1777761910 | 25.56° C | 45% | 1019.5 hPa | 0 mm | - | 185 W/m² | - |
| 1777761608 | 23.89° C | 44% | 1019.6 hPa | 0 mm | - | 326 W/m² | - |
| 1777761305 | 23.33° C | 46% | 1019.5 hPa | 0 mm | - | 117 W/m² | - |
| 1777761003 | 23.33° C | 43% | 1019.6 hPa | 0 mm | - | 121 W/m² | - |
| 1777760700 | 23.89° C | 48% | 1019.5 hPa | 0 mm | - | 117 W/m² | - |
| 1777760396 | 23.33° C | 44% | 1019.7 hPa | 0 mm | - | 392 W/m² | - |
| 1777760092 | 23.33° C | 43% | 1019.7 hPa | 0 mm | - | 119 W/m² | - |
| 1777759790 | 23.89° C | 43% | 1019.8 hPa | 0 mm | - | 169 W/m² | - |
| 1777759485 | 23.89° C | 43% | 1019.7 hPa | 0 mm | - | 139 W/m² | - |
| 1777759182 | 25° C | 44% | 1019.9 hPa | 0 mm | - | 98 W/m² | - |
| 1777758880 | 24.44° C | 43% | 1019.8 hPa | 0 mm | - | 480 W/m² | - |
| 1777758576 | 25° C | 44% | 1019.8 hPa | 0 mm | - | 106 W/m² | - |
| 1777758273 | 25.56° C | 42% | 1019.8 hPa | 0 mm | - | 458 W/m² | - |
* Rain latest hour (hover to see other rain measurements)
** Current wind speed in m/s (hover to see current wind gust speed)